Latest Weather Observations for Christmas Creek

IDW60801

Issued at 10:35 am WST Thursday 23 October 2014 (issued every 30 minutes, with the page automatically refreshed every 10 minutes)

About weather observations | Map of weather stations | Latest weather observations for WA | Other Formats
Station Details ID: 505049 Name: CHRISTMAS CREEK Lat: -22.36 Lon: 119.65 Height: 437.21 m
Data from the previous 72 hours. | See also: Recent months for locations in Western Australia
Date/Time
WST
Temp
°C
App
Temp
°C
Dew
Point
Rel
Hum
%
Delta-T
°C
Wind Press
QNH
hPa
Press
MSL
hPa
Rain
since 9 am
mm
Dir
 
Spd
km/h
Gust
km/h
Spd
kts
Gust
kts
23/10:30am 34.6 30.5 7.8 19 15.2 SSE 19 30 10 16 1015.0 1012.4 -
23/10:00am 33.3 28.2 7.6 20 14.5 S 24 33 13 18 1015.4 1012.8 -
23/09:00am 31.4 26.7 7.8 23 13.2 SSE 22 35 12 19 1015.8 1013.1 0.0
23/08:30am 30.7 25.7 7.9 24 12.7 SSE 24 33 13 18 1015.8 1013.1 0.0
23/08:00am 29.0 24.2 7.3 25 11.9 SSE 22 32 12 17 1015.8 1013.1 0.0
23/07:30am 28.3 23.9 6.7 25 11.7 S 19 26 10 14 1015.8 1013.1 0.0
23/07:00am 28.0 24.0 6.5 25 11.6 SSE 17 24 9 13 1015.5 1012.9 0.0
23/06:30am 27.0 24.3 5.7 25 11.2 SE 9 15 5 8 1015.2 1012.6 0.0
23/06:00am 26.1 23.7 5.4 26 10.8 SE 7 9 4 5 1014.9 1012.3 0.0
23/05:30am 26.5 23.8 5.4 26 11.1 SE 9 13 5 7 1014.6 1011.9 0.0
23/05:00am 27.2 24.1 5.4 25 11.5 SE 11 15 6 8 1014.5 1011.8 0.0
23/04:30am 26.4 23.6 5.2 25 11.1 SE 9 13 5 7 1014.1 1011.4 0.0
23/04:00am 25.3 22.9 4.5 26 10.6 SE 6 7 3 4 1013.9 1011.2 0.0
23/03:30am 25.8 23.3 4.6 25 10.9 SE 7 11 4 6 1013.7 1011.0 0.0
23/03:00am 26.2 23.6 4.3 24 11.2 ESE 7 11 4 6 1013.6 1010.9 0.0
23/02:30am 26.3 23.5 2.9 22 11.7 SSE 7 9 4 5 1013.6 1010.9 0.0
23/02:00am 26.0 23.8 3.4 23 11.4 S 4 7 2 4 1013.6 1010.9 0.0
23/01:30am 26.2 24.3 2.8 22 11.7 S 2 4 1 2 1013.6 1010.9 0.0
23/01:00am 26.4 24.4 2.5 21 11.9 NNE 2 2 1 1 1013.7 1011.0 0.0
23/12:30am 26.7 24.8 2.7 21 12.0 NW 2 2 1 1 1014.2 1011.5 0.0
23/12:00am 27.2 25.1 1.7 19 12.6 NNE 2 4 1 2 1014.2 1011.5 0.0
 
Date/Time
WST
Temp
°C
App
Temp
°C
Dew
Point
Rel
Hum
%
Delta-T
°C
Wind Press
QNH
hPa
Press
MSL
hPa
Rain
since 9 am
mm
Dir
 
Spd
km/h
Gust
km/h
Spd
kts
Gust
kts
22/11:30pm 28.1 25.5 1.0 17 13.3 SSW 4 6 2 3 1014.4 1011.7 0.0
22/11:00pm 28.4 25.1 0.0 16 13.7 SW 7 11 4 6 1014.7 1012.1 0.0
22/10:30pm 28.5 26.3 0.9 16 13.5 NNE 2 2 1 1 1014.8 1012.2 0.0
22/10:00pm 30.0 26.9 0.0 14 14.6 ESE 6 7 3 4 1014.9 1012.3 0.0
22/09:30pm 30.3 27.5 -0.3 14 14.9 S 4 6 2 3 1015.2 1012.6 0.0
22/09:00pm 31.2 27.8 -0.7 13 15.5 SSE 7 13 4 7 1015.2 1012.6 0.0
22/08:30pm 31.6 28.1 -1.0 12 15.8 S 7 13 4 7 1015.0 1012.4 0.0
22/08:00pm 32.2 28.3 -1.7 11 16.3 SSE 9 17 5 9 1014.9 1012.3 0.0
22/07:30pm 33.2 28.5 -1.7 10 16.9 SSE 13 20 7 11 1014.7 1012.1 0.0
22/07:00pm 33.6 28.9 -1.6 10 17.1 SSE 13 20 7 11 1014.6 1011.9 0.0
22/06:30pm 34.5 29.5 -1.5 10 17.6 SSE 15 22 8 12 1014.2 1011.5 0.0
22/06:00pm 35.9 32.6 -1.1 9 18.4 SE 6 7 3 4 1013.9 1011.2 0.0
22/05:30pm 36.4 32.5 -1.3 9 18.8 SSE 9 13 5 7 1013.7 1011.0 0.0
22/05:00pm 36.9 32.2 -1.6 8 19.1 SSE 13 20 7 11 1013.5 1010.8 0.0
22/04:30pm 37.1 33.2 -1.3 9 19.2 SE 9 19 5 10 1013.5 1010.8 0.0
22/04:00pm 37.9 33.2 -1.5 8 19.7 SE 13 20 7 11 1013.5 1010.8 0.0
22/03:30pm 37.0 32.7 -1.5 9 19.2 SE 11 20 6 11 1013.6 1010.9 0.0
22/03:00pm 37.9 34.0 -1.2 8 19.7 S 9 28 5 15 1013.7 1011.0 0.0
22/02:30pm 37.4 32.0 -1.3 8 19.4 SSE 17 24 9 13 1014.1 1011.4 0.0
22/02:00pm 37.2 33.3 -1.4 8 19.3 SSE 9 20 5 11 1014.3 1011.6 0.0
22/01:30pm 37.1 32.5 -1.4 9 19.2 S 13 19 7 10 1014.7 1012.1 0.0
22/01:00pm 36.2 30.8 -1.7 9 18.7 SE 17 28 9 15 1015.1 1012.5 0.0
22/12:30pm 36.0 30.9 -1.8 9 18.6 ESE 15 24 8 13 1015.5 1012.9 0.0
22/12:00pm 36.3 30.8 -1.8 9 18.8 S 17 28 9 15 1016.1 1013.4 0.0
22/11:30am 36.5 30.1 -1.6 9 18.9 SSE 22 35 12 19 1016.4 1013.7 0.0
22/11:00am 35.5 29.4 -2.2 9 18.4 S 20 32 11 17 1016.8 1014.2 0.0
22/10:30am 35.0 29.0 -1.4 10 17.9 S 20 41 11 22 1017.4 1014.8 0.0
22/10:00am 33.8 27.5 -1.0 11 17.1 SSE 22 30 12 16 1017.8 1015.2 0.0
22/09:30am 33.3 27.4 -1.0 11 16.8 SSE 20 32 11 17 1017.9 1015.3 0.0
22/09:00am 31.1 25.1 -1.5 12 15.6 SSE 20 32 11 17 1018.2 1015.5 0.0
22/08:30am 29.6 23.5 -2.4 12 14.9 SE 20 28 11 15 1018.3 1015.6 0.0
22/08:00am 28.7 22.8 -2.5 13 14.4 SE 19 26 10 14 1018.2 1015.5 0.0
22/07:30am 27.6 22.9 -1.8 14 13.7 S 13 20 7 11 1017.7 1015.1 0.0
22/07:00am 25.7 22.1 -2.0 16 12.6 S 7 11 4 6 1017.4 1014.8 0.0
22/06:30am 24.5 21.5 -1.8 17 11.9 S 4 7 2 4 1017.2 1014.6 0.0
22/06:00am 22.5 19.9 -1.8 19 10.8 ESE 2 4 1 2 1016.9 1014.3 0.0
22/05:30am 21.5 17.2 -1.9 20 10.3 WSW 11 13 6 7 1016.4 1013.7 0.0
22/05:00am 21.4 17.9 -1.1 22 10.1 ESE 7 15 4 8 1016.6 1013.9 0.0
22/04:30am 23.0 19.4 -2.2 18 11.2 W 7 9 4 5 1016.3 1013.6 0.0
22/04:00am 24.4 21.3 -2.7 16 12.1 WSW 4 7 2 4 1016.3 1013.6 0.0
22/03:30am 24.4 20.0 -2.3 17 12.0 W 11 15 6 8 1016.0 1013.3 0.0
22/03:00am 24.3 20.8 -1.7 18 11.8 W 7 11 4 6 1016.1 1013.4 0.0
22/02:30am 24.5 20.6 -1.3 18 11.8 W 9 11 5 6 1016.2 1013.5 0.0
22/02:00am 26.1 22.3 -0.7 17 12.5 W 9 15 5 8 1016.3 1013.6 0.0
22/01:30am 26.4 22.3 0.0 17 12.5 WNW 11 17 6 9 1016.4 1013.7 0.0
22/01:00am 25.8 22.8 0.5 19 12.1 SSE 6 9 3 5 1016.6 1013.9 0.0
22/12:30am 28.1 23.0 0.7 17 13.3 WNW 17 22 9 12 1016.2 1013.5 0.0
22/12:00am 26.0 21.6 0.5 19 12.2 N 13 15 7 8 1016.3 1013.6 0.0
 
Date/Time
WST
Temp
°C
App
Temp
°C
Dew
Point
Rel
Hum
%
Delta-T
°C
Wind Press
QNH
hPa
Press
MSL
hPa
Rain
since 9 am
mm
Dir
 
Spd
km/h
Gust
km/h
Spd
kts
Gust
kts
21/11:30pm 27.5 22.7 0.1 17 13.2 N 15 19 8 10 1016.5 1013.8 0.0
21/11:00pm 29.0 23.0 -1.6 13 14.4 N 20 26 11 14 1016.6 1013.9 0.0
21/10:30pm 28.1 22.8 -0.3 15 13.6 N 17 20 9 11 1016.7 1014.0 0.0
21/10:00pm 28.0 24.0 0.2 16 13.4 N 11 13 6 7 1016.9 1014.3 0.0
21/09:30pm 27.7 24.6 0.3 17 13.2 NE 6 7 3 4 1017.1 1014.5 0.0
21/09:00pm 28.1 24.9 0.7 17 13.3 NE 7 11 4 6 1017.1 1014.5 0.0
21/08:30pm 29.6 26.4 0.5 15 14.3 ENE 7 9 4 5 1017.0 1014.4 0.0
21/08:00pm 30.1 26.4 -0.3 14 14.7 ENE 9 13 5 7 1016.8 1014.2 0.0
21/07:30pm 30.6 27.2 -1.9 12 15.4 S 6 7 3 4 1016.5 1013.8 0.0
21/07:00pm 32.1 28.7 -1.8 11 16.2 SSE 6 9 3 5 1016.2 1013.5 0.0
21/06:30pm 34.2 30.2 -2.1 10 17.6 SE 9 13 5 7 1015.7 1013.0 0.0
21/06:00pm 35.0 31.0 -1.9 9 18.0 SSE 9 15 5 8 1015.4 1012.8 0.0
21/05:30pm 35.7 31.3 -2.4 9 18.5 SSW 11 22 6 12 1015.1 1012.5 0.0
21/05:00pm 36.4 32.4 -2.4 8 19.0 W 9 15 5 8 1014.9 1012.3 0.0
21/04:30pm 36.9 32.5 -2.2 8 19.2 W 11 24 6 13 1014.9 1012.3 0.0
21/04:00pm 37.0 31.2 -1.7 8 19.2 SW 19 22 10 12 1014.9 1012.3 0.0
21/03:30pm 36.7 33.0 -2.5 8 19.2 S 7 22 4 12 1014.9 1012.3 0.0
21/03:00pm 36.9 32.5 -2.7 8 19.3 WNW 11 26 6 14 1015.2 1012.6 0.0
21/02:30pm 36.2 31.0 -3.1 8 19.0 NNW 15 20 8 11 1015.3 1012.7 0.0
21/02:00pm 36.5 32.1 -2.6 8 19.1 WSW 11 46 6 25 1015.7 1013.0 0.0
21/01:30pm 36.8 31.2 -2.5 8 19.2 NW 17 32 9 17 1016.2 1013.5 0.0
21/01:00pm 35.8 31.8 -2.3 9 18.6 NW 9 24 5 13 1016.5 1013.8 0.0
21/12:30pm 35.3 30.1 -2.6 9 18.3 W 15 28 8 15 1017.2 1014.6 0.0
21/12:00pm 34.6 29.1 -2.0 9 17.8 W 17 28 9 15 1017.7 1015.1 0.0
21/11:30am 33.8 28.7 -1.8 10 17.3 N 15 22 8 12 1018.3 1015.6 0.0
21/11:00am 33.7 30.2 -1.4 10 17.1 NW 7 15 4 8 1018.9 1016.3 0.0
21/10:30am 33.5 29.3 -0.8 11 16.9 WNW 11 22 6 12 1019.1 1016.5 0.0
21/10:00am 32.2 28.8 -0.4 12 16.0 SSW 7 15 4 8 1019.5 1016.9 0.0
21/09:30am 31.4 28.2 0.6 14 15.3 ESE 7 15 4 8 1020.0 1017.4 0.0
21/09:00am 29.8 25.7 2.0 17 14.0 ESE 13 19 7 10 1019.9 1017.3 0.0
21/08:30am 28.0 23.1 1.7 18 13.0 ESE 17 30 9 16 1020.1 1017.5 0.0
21/08:00am 26.9 23.5 1.7 19 12.4 ESE 9 19 5 10 1020.2 1017.6 0.0
21/07:30am 25.7 21.1 1.5 20 11.8 SE 15 22 8 12 1019.8 1017.2 0.0
21/07:00am 23.9 20.3 0.9 22 10.9 SSE 9 11 5 6 1019.7 1017.1 0.0
21/06:30am 21.7 19.2 1.6 26 9.5 SSW 4 7 2 4 1019.5 1016.9 0.0
21/06:00am 18.7 16.5 3.4 36 7.3 SW 4 4 2 2 1019.2 1016.6 0.0
21/05:30am 18.2 16.3 2.8 35 7.3 NNE 2 4 1 2 1018.7 1016.0 0.0
21/05:00am 18.4 16.5 2.6 35 7.4 ENE 2 4 1 2 1018.3 1015.6 0.0
21/04:30am 19.3 17.2 1.8 31 8.2 ENE 2 4 1 2 1018.1 1015.4 0.0
21/04:00am 19.8 17.7 1.9 30 8.4 ESE 2 6 1 3 1017.7 1015.1 0.0
21/03:30am 19.9 17.5 2.0 30 8.4 E 4 6 2 3 1017.4 1014.8 0.0
21/03:00am 20.6 17.5 1.3 27 9.0 WSW 7 9 4 5 1017.0 1014.4 0.0
21/02:30am 21.5 18.7 1.8 27 9.3 WNW 6 7 3 4 1017.0 1014.4 0.0
21/02:00am 22.1 20.0 1.9 26 9.6 WNW 2 6 1 3 1016.9 1014.3 0.0
21/01:30am 22.7 19.7 0.7 23 10.3 SSW 6 11 3 6 1016.9 1014.3 0.0
21/01:00am 22.9 20.2 2.4 26 9.9 SW 6 6 3 3 1017.0 1014.4 0.0
21/12:30am 24.2 21.2 1.0 21 11.1 WSW 6 7 3 4 1017.1 1014.5 0.0
21/12:00am 24.6 21.5 1.6 22 11.1 W 7 9 4 5 1017.2 1014.6 0.0
 
Date/Time
WST
Temp
°C
App
Temp
°C
Dew
Point
Rel
Hum
%
Delta-T
°C
Wind Press
QNH
hPa
Press
MSL
hPa
Rain
since 9 am
mm
Dir
 
Spd
km/h
Gust
km/h
Spd
kts
Gust
kts
20/11:30pm 25.2 21.8 1.7 21 11.4 SW 9 15 5 8 1017.4 1014.8 0.0
20/11:00pm 26.6 22.8 1.9 20 12.1 WSW 11 17 6 9 1017.6 1015.0 0.0
20/10:30pm 28.1 23.0 3.0 20 12.7 WNW 19 26 10 14 1017.3 1014.7 0.0
20/10:00pm 28.6 23.1 2.0 18 13.3 NW 20 26 11 14 1017.1 1014.5 0.0
20/09:30pm 28.2 23.2 1.4 17 13.2 NW 17 20 9 11 1016.9 1014.3 0.0
20/09:00pm 28.8 23.8 1.4 17 13.6 NW 17 20 9 11 1016.8 1014.2 0.0
20/08:30pm 28.5 23.9 1.4 17 13.4 NW 15 19 8 10 1016.6 1013.9 0.0
20/08:00pm 29.1 24.4 0.9 16 13.9 NW 15 17 8 9 1016.3 1013.6 0.0
20/07:30pm 29.8 24.6 0.2 15 14.5 NW 17 19 9 10 1015.8 1013.1 0.0
20/07:00pm 30.8 26.0 -0.1 13 15.1 NW 15 19 8 10 1015.2 1012.6 0.0
20/06:30pm 32.3 26.6 -0.4 12 16.1 NW 19 22 10 12 1014.8 1012.2 0.0
20/06:00pm 33.5 27.8 -0.4 11 16.8 NW 19 30 10 16 1014.4 1011.7 0.0
20/05:30pm 34.6 27.6 -0.4 11 17.5 NW 26 35 14 19 1014.0 1011.3 0.0
20/05:00pm 35.1 27.9 0.4 11 17.6 NW 28 39 15 21 1013.6 1010.9 0.0
20/04:30pm 35.3 29.1 -0.3 10 17.9 NW 22 39 12 21 1013.4 1010.7 0.0
20/04:00pm 35.8 27.8 0.3 10 18.1 NW 32 46 17 25 1013.1 1010.5 0.0
20/03:42pm 35.9 28.3 0.5 10 18.1 NW 30 48 16 26 1013.3 1010.6 0.0
20/03:30pm 35.7 28.0 -0.2 10 18.1 NW 30 44 16 24 1013.1 1010.5 0.0
20/03:00pm 36.0 28.4 0.3 10 18.2 NW 30 43 16 23 1013.4 1010.7 0.0
20/02:43pm 36.3 28.2 -0.5 10 18.5 NW 32 50 17 27 1013.4 1010.7 0.0
20/02:30pm 36.4 29.4 1.9 11 18.1 WNW 28 44 15 24 1013.6 1010.9 0.0
20/02:00pm 36.1 30.6 2.0 12 17.8 W 20 46 11 25 1014.0 1011.3 0.0
20/01:30pm 35.2 27.4 1.9 12 17.3 WNW 32 50 17 27 1014.4 1011.7 0.0
20/01:27pm 35.4 28.4 2.0 12 17.4 NW 28 48 15 26 1014.4 1011.7 0.0
20/01:00pm 35.9 29.5 3.3 13 17.4 NW 26 37 14 20 1014.8 1012.2 0.0
20/12:39pm 34.9 28.0 2.7 13 16.9 WNW 28 50 15 27 1015.2 1012.6 0.0
20/12:30pm 35.2 29.1 2.6 13 17.1 W 24 39 13 21 1015.4 1012.8 0.0
20/12:00pm 33.7 29.1 3.7 15 15.9 NNW 17 32 9 17 1016.1 1013.4 0.0
20/11:30am 32.6 28.9 4.5 17 15.0 W 13 26 7 14 1016.6 1013.9 0.0
20/11:00am 31.2 28.8 4.5 18 14.1 SSW 6 15 3 8 1017.1 1014.5 0.0

Other Formats:

Comma delimited format used in spreadsheet applications
http://www.bom.gov.au/fwo/IDW60801/IDW60801.99737.axf

JavaScript Object Notation format (JSON) in row-major order
http://www.bom.gov.au/fwo/IDW60801/IDW60801.99737.json